Time;durP1;ratioP1;P1;durP2;ratioP2;P2;SDS_P1;SDS_P2;PMS_P1;PMS_P2;Temp;Humidity;BMP_temperature;BMP_pressure;BME280_temperature;BME280_humidity;BME280_pressure;Samples;Min_cycle;Max_cycle;Signal;HPM_P1;HPM_P2
2023/12/18 00:00:49;;;;;;;42.55;23.35;;;;;;;3.49;100.00;102106.34;5106236;28;20208;-42
2023/12/18 00:03:19;;;;;;;40.38;22.65;;;;;;;3.49;100.00;102118.66;5115056;28;20043;-42
2023/12/18 00:05:48;;;;;;;39.80;23.40;;;;;;;3.59;100.00;102109.84;5115055;27;20093;-43
2023/12/18 00:08:16;;;;;;;43.50;22.48;;;;;;;3.66;100.00;102112.44;5115005;28;20525;-44
2023/12/18 00:10:45;;;;;;;43.22;22.98;;;;;;;3.74;100.00;102105.38;5114938;28;20040;-44
2023/12/18 00:13:13;;;;;;;39.33;22.65;;;;;;;3.84;100.00;102106.25;5114566;28;20047;-47
2023/12/18 00:15:41;;;;;;;45.05;22.85;;;;;;;3.89;100.00;102101.84;5114534;28;20456;-42
2023/12/18 00:18:10;;;;;;;43.50;22.55;;;;;;;3.63;100.00;102108.94;5095759;28;20044;-44
2023/12/18 00:20:40;;;;;;;44.13;23.00;;;;;;;3.59;100.00;102109.84;5094416;28;20131;-41
2023/12/18 00:23:08;;;;;;;43.70;23.33;;;;;;;3.67;100.00;102110.72;5094682;28;20094;-44
2023/12/18 00:25:38;;;;;;;42.20;22.73;;;;;;;3.72;100.00;102101.00;5103438;28;20108;-43
2023/12/18 00:28:06;;;;;;;39.33;22.13;;;;;;;3.76;100.00;102100.09;5108769;28;20050;-41
2023/12/18 00:30:35;;;;;;;42.33;21.95;;;;;;;3.76;100.00;102094.81;5114483;28;20044;-43
2023/12/18 00:33:04;;;;;;;42.95;22.65;;;;;;;3.55;100.00;102098.41;5114568;28;20048;-44
2023/12/18 00:35:32;;;;;;;42.10;23.52;;;;;;;3.40;100.00;102104.59;5116899;28;20044;-42
2023/12/18 00:38:02;;;;;;;38.25;21.88;;;;;;;3.36;100.00;102094.03;5114204;28;20054;-43
2023/12/18 00:40:30;;;;;;;50.97;22.95;;;;;;;3.33;100.00;102100.19;5109771;28;20048;-42
2023/12/18 00:42:59;;;;;;;43.53;22.90;;;;;;;3.40;100.00;102101.06;5093973;28;20051;-43
2023/12/18 00:45:27;;;;;;;42.33;22.55;;;;;;;3.50;100.00;102096.66;5093929;28;20109;-42
2023/12/18 00:47:56;;;;;;;41.50;23.10;;;;;;;3.61;100.00;102102.78;5093990;28;20090;-42
2023/12/18 00:50:25;;;;;;;39.55;21.92;;;;;;;3.66;100.00;102095.72;5113419;28;20078;-44
2023/12/18 00:52:53;;;;;;;43.38;23.40;;;;;;;3.64;100.00;102092.22;5103675;28;20048;-42
2023/12/18 00:55:23;;;;;;;42.17;22.58;;;;;;;3.66;100.00;102095.72;5096031;28;20504;-44
2023/12/18 00:57:51;;;;;;;43.85;23.70;;;;;;;3.72;100.00;102090.44;5095974;28;20051;-41
2023/12/18 01:00:22;;;;;;;40.83;22.80;;;;;;;3.61;100.00;102086.97;5115862;28;20058;-43
2023/12/18 01:02:51;;;;;;;40.13;22.65;;;;;;;3.51;100.00;102101.06;5111959;28;20055;-43
2023/12/18 01:05:19;;;;;;;41.72;22.92;;;;;;;3.30;100.00;102108.13;5096167;28;20358;-42
2023/12/18 01:07:48;;;;;;;44.78;24.17;;;;;;;3.06;100.00;102109.00;5093965;28;20396;-42
2023/12/18 01:10:16;;;;;;;45.42;23.15;;;;;;;3.23;100.00;102108.13;5093406;28;20048;-43
2023/12/18 01:12:46;;;;;;;43.58;23.60;;;;;;;3.23;100.00;102106.34;5101710;28;20126;-43
2023/12/18 01:15:14;;;;;;;45.38;24.42;;;;;;;3.24;100.00;102102.84;5113666;28;20466;-43
2023/12/18 01:17:42;;;;;;;44.50;24.80;;;;;;;3.35;100.00;102095.78;5104269;28;20173;-43
2023/12/18 01:20:12;;;;;;;49.28;24.98;;;;;;;3.33;100.00;102100.19;5092911;28;20466;-42
2023/12/18 01:22:40;;;;;;;46.22;24.10;;;;;;;3.40;100.00;102106.34;5107642;28;20048;-43
2023/12/18 01:25:11;;;;;;;46.38;24.77;;;;;;;3.51;100.00;102103.69;5113310;28;20449;-43
2023/12/18 01:27:40;;;;;;;47.15;26.05;;;;;;;3.47;100.00;102100.16;5095199;28;20044;-45
2023/12/18 01:30:11;;;;;;;46.33;24.02;;;;;;;3.37;100.00;102093.16;5093056;28;20054;-43
2023/12/18 01:32:40;;;;;;;44.83;23.67;;;;;;;3.51;100.00;102094.03;5092623;28;20044;-42
2023/12/18 01:35:09;;;;;;;43.40;23.50;;;;;;;3.54;100.00;102095.75;5103948;28;20054;-43
2023/12/18 01:37:37;;;;;;;46.00;25.48;;;;;;;3.42;100.00;102086.13;5110154;28;20479;-42
2023/12/18 01:40:07;;;;;;;44.50;24.02;;;;;;;3.41;100.00;102090.50;5092510;28;20052;-43
2023/12/18 01:42:36;;;;;;;45.33;24.92;;;;;;;3.05;100.00;102085.25;5092500;28;20055;-43
2023/12/18 01:45:05;;;;;;;49.80;24.65;;;;;;;2.90;100.00;102088.78;5091661;28;20066;-46
2023/12/18 01:47:35;;;;;;;45.45;24.33;;;;;;;2.79;100.00;102088.75;5091236;28;20093;-42
2023/12/18 01:50:04;;;;;;;42.83;24.95;;;;;;;2.77;100.00;102092.28;5107139;28;20071;-43
2023/12/18 01:52:36;;;;;;;44.65;25.08;;;;;;;2.68;100.00;102085.22;5112897;28;20044;-43
2023/12/18 01:55:06;;;;;;;47.28;26.20;;;;;;;2.70;100.00;102080.88;5112902;27;20449;-43
2023/12/18 01:57:34;;;;;;;45.05;25.60;;;;;;;2.66;100.00;102081.72;5112673;28;20097;-44
2023/12/18 02:00:04;;;;;;;46.22;24.58;;;;;;;2.51;100.00;102081.69;5112080;28;20044;-44
2023/12/18 02:02:33;;;;;;;47.75;26.48;;;;;;;2.30;100.00;102080.75;5111174;28;20043;-42
2023/12/18 02:05:03;;;;;;;45.58;25.55;;;;;;;2.48;100.00;102081.69;5092305;28;20412;-42
2023/12/18 02:07:34;;;;;;;43.67;24.85;;;;;;;2.48;100.00;102076.41;5091994;28;20571;-43
2023/12/18 02:10:03;;;;;;;45.15;25.35;;;;;;;2.67;100.00;102072.94;5092102;28;20411;-42
2023/12/18 02:12:32;;;;;;;45.05;25.08;;;;;;;2.69;100.00;102075.56;5091823;28;20759;-42
2023/12/18 02:15:00;;;;;;;45.20;24.88;;;;;;;2.59;100.00;102064.13;5091964;28;20044;-43
2023/12/18 02:17:29;;;;;;;45.55;25.13;;;;;;;2.59;100.00;102061.50;5104605;28;20135;-44
2023/12/18 02:20:09;;;;;;;47.95;25.20;;;;;;;2.64;100.00;102067.69;5091917;28;20048;-42
2023/12/18 02:22:46;;;;;;;40.92;23.85;;;;;;;2.61;100.00;102062.41;5091690;28;20062;-42
2023/12/18 02:25:16;;;;;;;44.75;23.95;;;;;;;2.65;100.00;102064.16;5091567;28;20055;-44
2023/12/18 02:27:46;;;;;;;43.90;24.08;;;;;;;2.79;100.00;102070.31;5071487;28;20044;-42
2023/12/18 02:30:15;;;;;;;46.70;24.08;;;;;;;2.87;100.00;102065.91;5071438;28;20094;-43
2023/12/18 02:32:44;;;;;;;41.70;23.90;;;;;;;2.94;100.00;102065.94;5083364;28;20048;-43
2023/12/18 02:35:13;;;;;;;43.33;24.27;;;;;;;2.79;100.00;102062.41;5091560;28;20586;-42
2023/12/18 02:37:43;;;;;;;43.55;23.63;;;;;;;2.86;100.00;102058.91;5091480;28;20040;-44
2023/12/18 02:40:11;;;;;;;42.40;24.10;;;;;;;2.86;100.00;102058.91;5110442;28;20074;-43
2023/12/18 02:42:40;;;;;;;43.75;24.23;;;;;;;2.83;100.00;102058.91;5111761;28;20403;-42
2023/12/18 02:45:09;;;;;;;43.08;23.38;;;;;;;2.83;100.00;102045.72;5111783;28;20488;-43
2023/12/18 02:47:37;;;;;;;43.47;23.48;;;;;;;2.81;100.00;102047.50;5111560;28;20233;-41
2023/12/18 02:50:06;;;;;;;47.65;25.60;;;;;;;2.72;100.00;102058.03;5111653;28;20048;-43
2023/12/18 02:52:35;;;;;;;41.60;23.95;;;;;;;2.69;100.00;102065.91;5111824;28;20530;-43
2023/12/18 02:55:05;;;;;;;41.45;23.35;;;;;;;2.67;100.00;102072.06;5110144;28;20039;-43
2023/12/18 02:57:34;;;;;;;43.10;24.02;;;;;;;2.57;100.00;102073.81;5096199;28;20043;-41
2023/12/18 03:00:03;;;;;;;46.03;23.92;;;;;;;2.59;100.00;102079.94;5111682;28;20055;-43
2023/12/18 03:02:31;;;;;;;43.95;23.95;;;;;;;2.59;100.00;102072.91;5111688;27;20047;-43
2023/12/18 03:05:00;;;;;;;47.17;24.50;;;;;;;2.44;100.00;102069.41;5111833;28;20062;-42
2023/12/18 03:07:28;;;;;;;45.28;23.60;;;;;;;2.39;100.00;102076.41;5111789;28;20040;-43
2023/12/18 03:09:56;;;;;;;47.45;25.48;;;;;;;2.53;100.00;102072.06;5096179;28;20473;-42
2023/12/18 03:12:26;;;;;;;46.88;25.55;;;;;;;2.34;100.00;102071.13;5091235;28;20044;-42
2023/12/18 03:14:54;;;;;;;51.35;25.77;;;;;;;2.33;100.00;102071.13;5091199;28;20098;-45
2023/12/18 03:17:23;;;;;;;49.10;25.30;;;;;;;2.36;100.00;102071.13;5097335;28;20050;-43
2023/12/18 03:19:51;;;;;;;46.40;25.65;;;;;;;2.48;100.00;102068.50;5111440;28;20058;-42
2023/12/18 03:22:20;;;;;;;48.67;26.08;;;;;;;2.41;100.00;102070.25;5092671;28;20047;-42
2023/12/18 03:24:48;;;;;;;46.15;24.65;;;;;;;2.26;100.00;102071.09;5091240;28;20044;-42
2023/12/18 03:27:16;;;;;;;48.85;26.98;;;;;;;2.23;100.00;102070.22;5104984;28;20047;-44
2023/12/18 03:29:46;;;;;;;51.90;26.13;;;;;;;2.17;100.00;102065.81;5111444;28;20126;-42
2023/12/18 03:32:15;;;;;;;47.63;27.00;;;;;;;2.37;100.00;102057.97;5111770;28;20123;-43
2023/12/18 03:34:43;;;;;;;45.08;24.48;;;;;;;2.44;100.00;102062.38;5070936;28;20044;-42
2023/12/18 03:37:12;;;;;;;47.70;26.10;;;;;;;2.12;100.00;102051.75;5070838;28;20465;-42
2023/12/18 03:39:40;;;;;;;50.30;25.15;;;;;;;2.16;100.00;102047.38;5105907;28;20059;-44
2023/12/18 03:42:08;;;;;;;49.67;26.83;;;;;;;2.38;100.00;102048.31;5111355;28;20051;-43
2023/12/18 03:44:36;;;;;;;48.00;24.98;;;;;;;2.46;100.00;102046.56;5111253;28;20052;-41
2023/12/18 03:47:06;;;;;;;48.30;25.75;;;;;;;2.42;100.00;102044.81;5111385;28;20091;-43
2023/12/18 03:49:34;;;;;;;50.88;26.30;;;;;;;2.47;100.00;102050.97;5111366;28;20093;-44
2023/12/18 03:52:03;;;;;;;46.20;25.45;;;;;;;2.61;100.00;102056.28;5096529;28;20052;-42
2023/12/18 03:54:31;;;;;;;50.97;26.23;;;;;;;2.63;100.00;102043.97;5090710;28;20426;-43
2023/12/18 03:57:00;;;;;;;48.33;25.35;;;;;;;2.48;100.00;102039.53;5090375;28;20133;-42
2023/12/18 03:59:28;;;;;;;42.28;23.75;;;;;;;2.60;100.00;102044.81;5091717;28;20460;-42
2023/12/18 04:01:56;;;;;;;46.88;24.77;;;;;;;2.57;100.00;102047.47;5111439;28;20051;-42
2023/12/18 04:04:26;;;;;;;44.00;25.92;;;;;;;2.55;100.00;102047.47;5111305;28;20135;-45
2023/12/18 04:06:54;;;;;;;48.30;25.80;;;;;;;2.47;100.00;102037.78;5105842;28;20405;-42
2023/12/18 04:09:23;;;;;;;43.97;25.45;;;;;;;2.62;100.00;102036.94;5092471;28;20527;-45
2023/12/18 04:11:51;;;;;;;45.28;25.25;;;;;;;2.55;100.00;102036.94;5096576;28;20449;-43
2023/12/18 04:14:19;;;;;;;46.25;24.95;;;;;;;2.65;100.00;102039.56;5114943;28;20472;-41
2023/12/18 04:16:48;;;;;;;43.45;25.08;;;;;;;2.69;100.00;102034.28;5106816;28;20048;-42
2023/12/18 04:19:16;;;;;;;46.80;25.25;;;;;;;2.70;100.00;102022.00;5094726;28;20100;-42
2023/12/18 04:21:46;;;;;;;44.78;24.85;;;;;;;2.63;100.00;102029.03;5094285;28;20543;-43
2023/12/18 04:24:15;;;;;;;40.17;23.45;;;;;;;2.67;100.00;102025.50;5094234;28;20052;-43
2023/12/18 04:26:47;;;;;;;46.33;24.90;;;;;;;2.72;100.00;102022.91;5099638;28;20040;-42
2023/12/18 04:29:16;;;;;;;43.83;24.83;;;;;;;2.58;100.00;102025.50;5096106;28;20044;-50
2023/12/18 04:31:45;;;;;;;44.78;24.65;;;;;;;2.64;100.00;102032.53;5094024;28;20537;-42
2023/12/18 04:34:13;;;;;;;44.92;24.17;;;;;;;2.67;100.00;102028.16;5094166;28;20044;-43
2023/12/18 04:36:42;;;;;;;43.15;24.48;;;;;;;2.66;100.00;102033.41;5094039;28;20126;-42
2023/12/18 04:39:12;;;;;;;43.75;24.75;;;;;;;2.71;100.00;102036.94;5094745;28;20065;-42
2023/12/18 04:41:40;;;;;;;43.90;24.58;;;;;;;2.72;100.00;102025.53;5099599;28;20110;-43
2023/12/18 04:44:09;;;;;;;44.65;23.67;;;;;;;2.59;100.00;102032.53;5094308;28;20079;-44
2023/12/18 04:46:38;;;;;;;46.72;26.20;;;;;;;2.66;100.00;102030.78;5094317;28;20113;-44
2023/12/18 04:49:06;;;;;;;48.00;25.35;;;;;;;2.47;100.00;102032.53;5093826;28;20048;-43
2023/12/18 04:51:34;;;;;;;48.85;24.63;;;;;;;2.51;100.00;102029.00;5093962;28;20047;-42
2023/12/18 04:54:03;;;;;;;52.38;26.17;;;;;;;2.50;100.00;102028.13;5093595;28;20058;-41
2023/12/18 04:56:32;;;;;;;48.95;26.77;;;;;;;2.63;100.00;102030.78;5109478;28;20039;-42
2023/12/18 04:59:01;;;;;;;45.72;25.20;;;;;;;2.60;100.00;102029.00;5113897;28;20104;-43
2023/12/18 05:01:29;;;;;;;51.58;26.55;;;;;;;2.63;100.00;102022.88;5113602;28;20106;-42
2023/12/18 05:03:58;;;;;;;57.08;30.17;;;;;;;2.44;100.00;102032.53;5073050;28;20048;-42
2023/12/18 05:06:29;;;;;;;57.05;30.63;;;;;;;2.24;100.00;102036.00;5076663;28;20040;-42
2023/12/18 05:08:58;;;;;;;56.78;30.23;;;;;;;2.28;100.00;102037.75;5093322;28;20052;-44
2023/12/18 05:11:26;;;;;;;59.00;30.77;;;;;;;2.21;100.00;102027.19;5093156;28;20044;-42
2023/12/18 05:13:56;;;;;;;59.85;31.85;;;;;;;2.25;100.00;102028.97;5103472;28;20272;-42
2023/12/18 05:16:24;;;;;;;62.20;31.48;;;;;;;2.19;100.00;102029.81;5113699;28;20044;-42
2023/12/18 05:18:54;;;;;;;75.47;37.35;;;;;;;2.19;100.00;102024.56;5113548;28;20456;-43
2023/12/18 05:21:22;;;;;;;67.75;34.83;;;;;;;2.26;100.00;102028.09;5096276;28;20048;-41
2023/12/18 05:23:51;;;;;;;70.55;35.88;;;;;;;2.27;100.00;102025.47;5093478;28;20431;-42
2023/12/18 05:26:19;;;;;;;65.53;33.95;;;;;;;2.26;100.00;102021.06;5092771;28;20052;-42
2023/12/18 05:28:47;;;;;;;65.07;34.10;;;;;;;2.26;100.00;102030.72;5092979;28;20046;-43
2023/12/18 05:31:18;;;;;;;60.50;31.55;;;;;;;2.33;100.00;102029.00;5097506;28;20040;-43
2023/12/18 05:33:47;;;;;;;59.60;31.50;;;;;;;2.30;100.00;102030.72;5113331;27;20511;-43
2023/12/18 05:36:15;;;;;;;60.20;31.25;;;;;;;2.43;100.00;102022.88;5113294;28;20047;-43
2023/12/18 05:38:44;;;;;;;55.15;30.73;;;;;;;2.42;100.00;102024.63;5102842;28;20055;-43
2023/12/18 05:41:12;;;;;;;55.55;29.85;;;;;;;2.33;100.00;102029.00;5096973;28;20047;-43
2023/12/18 05:43:40;;;;;;;55.80;29.75;;;;;;;2.37;100.00;102025.47;5113009;28;20451;-42
2023/12/18 05:46:12;;;;;;;49.53;28.75;;;;;;;2.42;100.00;102023.75;5095338;28;20090;-43
2023/12/18 05:48:41;;;;;;;48.42;27.17;;;;;;;2.37;100.00;102025.47;5092697;28;20070;-43
2023/12/18 05:51:19;;;;;;;46.58;26.20;;;;;;;2.40;100.00;102026.34;5092699;28;20036;-43
2023/12/18 05:53:48;;;;;;;47.17;26.80;;;;;;;2.26;100.00;102028.97;5092729;28;20067;-44
2023/12/18 05:56:17;;;;;;;48.30;27.80;;;;;;;2.23;100.00;102028.97;5092215;28;20056;-42
2023/12/18 05:58:45;;;;;;;49.85;26.38;;;;;;;2.26;100.00;102023.72;5108626;28;20203;-42
2023/12/18 06:01:14;;;;;;;50.83;27.45;;;;;;;2.38;100.00;102033.38;5112652;28;20047;-43
2023/12/18 06:03:43;;;;;;;50.33;27.08;;;;;;;2.36;100.00;102024.59;5112436;28;20055;-43
2023/12/18 06:06:12;;;;;;;50.67;27.27;;;;;;;2.33;100.00;102023.72;5112308;28;20043;-43
2023/12/18 06:08:41;;;;;;;50.92;28.10;;;;;;;2.29;100.00;102022.81;5110429;28;20526;-43
2023/12/18 06:11:09;;;;;;;52.47;27.55;;;;;;;2.25;100.00;102021.06;5091993;28;20040;-43
2023/12/18 06:13:39;;;;;;;50.13;27.60;;;;;;;2.18;100.00;102030.72;5091977;28;20431;-42
2023/12/18 06:16:07;;;;;;;54.05;29.08;;;;;;;2.16;100.00;102032.47;5092126;28;20548;-43
2023/12/18 06:18:36;;;;;;;53.50;28.33;;;;;;;2.16;100.00;102037.72;5092179;28;20044;-43
2023/12/18 06:21:06;;;;;;;49.75;27.17;;;;;;;2.21;100.00;102046.50;5095138;28;20404;-42
2023/12/18 06:23:35;;;;;;;54.78;28.73;;;;;;;2.06;100.00;102045.59;5109038;28;20048;-42
2023/12/18 06:26:04;;;;;;;55.83;28.80;;;;;;;2.07;100.00;102056.13;5092048;28;20158;-43
2023/12/18 06:28:33;;;;;;;51.42;27.50;;;;;;;2.03;100.00;102050.81;5091987;28;20044;-42
2023/12/18 06:31:02;;;;;;;55.60;29.33;;;;;;;2.06;100.00;102057.00;5091511;28;20102;-42
2023/12/18 06:33:31;;;;;;;50.60;27.60;;;;;;;2.11;100.00;102052.63;5091560;28;20059;-43
2023/12/18 06:35:59;;;;;;;54.75;29.35;;;;;;;2.07;100.00;102060.50;5096265;28;20485;-43
2023/12/18 06:38:29;;;;;;;59.03;29.95;;;;;;;2.18;100.00;102070.19;5112205;28;20100;-42
2023/12/18 06:40:57;;;;;;;55.35;30.15;;;;;;;2.29;100.00;102065.84;5099649;28;20048;-43
2023/12/18 06:43:25;;;;;;;53.33;30.23;;;;;;;2.27;100.00;102064.97;5091600;28;20044;-43
2023/12/18 06:45:54;;;;;;;58.28;30.50;;;;;;;2.39;100.00;102065.88;5097820;28;20097;-42
2023/12/18 06:48:23;;;;;;;64.35;31.08;;;;;;;2.43;100.00;102051.84;5099239;28;20544;-42
2023/12/18 06:50:52;;;;;;;49.05;28.50;;;;;;;2.34;100.00;102057.97;5098095;28;20039;-43
2023/12/18 06:53:20;;;;;;;52.75;28.85;;;;;;;2.02;100.00;102065.75;5098464;28;20138;-43
2023/12/18 06:55:50;;;;;;;53.28;28.50;;;;;;;2.18;100.00;102067.56;5097699;28;20155;-43
2023/12/18 06:58:18;;;;;;;56.95;30.02;;;;;;;2.24;100.00;102072.00;5098417;28;20408;-42
2023/12/18 07:00:46;;;;;;;57.50;30.83;;;;;;;2.28;100.00;102074.63;5097878;28;20048;-43
2023/12/18 07:03:15;;;;;;;55.38;28.63;;;;;;;2.20;100.00;102078.97;5096045;28;20143;-42
2023/12/18 07:05:44;;;;;;;58.00;30.77;;;;;;;2.21;100.00;102078.09;5097607;28;20044;-42
2023/12/18 07:08:12;;;;;;;54.60;29.10;;;;;;;2.32;100.00;102075.53;5099137;28;20105;-42
2023/12/18 07:10:41;;;;;;;56.72;29.70;;;;;;;2.42;100.00;102071.16;5098821;28;20067;-41
2023/12/18 07:13:11;;;;;;;58.53;29.52;;;;;;;2.42;100.00;102071.16;5098382;28;20464;-41
2023/12/18 07:15:39;;;;;;;60.33;30.98;;;;;;;2.47;100.00;102069.41;5096236;28;20109;-43
2023/12/18 07:18:08;;;;;;;59.67;32.33;;;;;;;2.55;100.00;102065.91;5098362;28;20040;-42
2023/12/18 07:20:37;;;;;;;59.78;30.58;;;;;;;2.53;100.00;102074.69;5099312;28;20126;-43
2023/12/18 07:23:05;;;;;;;55.45;30.65;;;;;;;2.45;100.00;102072.03;5100244;28;20052;-43
2023/12/18 07:25:33;;;;;;;51.88;30.50;;;;;;;2.51;100.00;102071.16;5104823;28;20147;-42
2023/12/18 07:28:02;;;;;;;59.72;31.58;;;;;;;2.41;100.00;102069.38;5106527;28;20132;-42
2023/12/18 07:30:31;;;;;;;53.67;31.05;;;;;;;2.41;100.00;102075.50;5111191;28;20051;-43
2023/12/18 07:33:00;;;;;;;57.05;30.98;;;;;;;2.36;100.00;102066.75;5111404;28;20051;-43
2023/12/18 07:35:29;;;;;;;56.50;30.10;;;;;;;2.34;100.00;102072.88;5102277;28;20055;-42
2023/12/18 07:37:57;;;;;;;58.40;30.90;;;;;;;2.45;100.00;102068.53;5092313;28;20131;-42
2023/12/18 07:40:25;;;;;;;58.25;30.48;;;;;;;2.59;100.00;102064.13;5095110;28;20044;-43
2023/12/18 07:42:54;;;;;;;59.10;30.15;;;;;;;2.62;100.00;102064.16;5093041;28;20079;-42
2023/12/18 07:45:22;;;;;;;53.65;28.75;;;;;;;2.66;100.00;102065.03;5101931;28;20055;-42
2023/12/18 07:47:51;;;;;;;51.75;29.15;;;;;;;2.70;100.00;102066.78;5107089;28;20094;-43
2023/12/18 07:50:20;;;;;;;51.83;27.40;;;;;;;2.72;100.00;102059.78;5101144;28;20150;-42
2023/12/18 07:52:48;;;;;;;58.47;30.98;;;;;;;2.43;100.00;102063.25;5104174;28;20132;-42
2023/12/18 07:55:18;;;;;;;55.08;29.45;;;;;;;2.51;100.00;102069.41;5106312;28;20050;-44
2023/12/18 07:57:46;;;;;;;55.42;29.42;;;;;;;2.69;100.00;102065.91;5106780;27;20043;-41
2023/12/18 08:00:15;;;;;;;52.40;29.67;;;;;;;2.75;100.00;102065.94;5108882;28;20047;-42
2023/12/18 08:02:44;;;;;;;54.22;29.77;;;;;;;2.81;100.00;102065.94;5102677;28;20096;-42
2023/12/18 08:05:14;;;;;;;57.72;31.35;;;;;;;2.83;100.00;102063.31;5111658;28;20492;-40
2023/12/18 08:07:42;;;;;;;55.47;31.67;;;;;;;2.73;100.00;102058.91;5100162;27;20465;-44
2023/12/18 08:10:10;;;;;;;56.88;29.77;;;;;;;2.95;100.00;102067.69;5099002;28;20374;-43
2023/12/18 08:12:39;;;;;;;54.75;30.40;;;;;;;3.02;100.00;102070.34;5102092;28;20147;-41
2023/12/18 08:15:08;;;;;;;56.95;31.88;;;;;;;2.83;100.00;102064.19;5101110;28;21017;-42
2023/12/18 08:17:40;;;;;;;57.47;31.35;;;;;;;2.71;100.00;102069.44;5105577;28;20048;-44
2023/12/18 08:20:09;;;;;;;53.88;30.45;;;;;;;2.91;100.00;102060.69;5111136;28;20147;-42
2023/12/18 08:22:39;;;;;;;58.47;31.60;;;;;;;2.78;100.00;102055.38;5114280;28;20210;-42
2023/12/18 08:25:08;;;;;;;59.53;32.13;;;;;;;2.95;100.00;102051.88;5104391;28;20447;-43
2023/12/18 08:27:36;;;;;;;55.47;31.15;;;;;;;3.07;100.00;102058.00;5105627;28;20040;-42
2023/12/18 08:30:06;;;;;;;54.47;30.63;;;;;;;3.18;100.00;102044.81;5098458;28;20072;-43
2023/12/18 08:32:35;;;;;;;53.83;31.15;;;;;;;3.06;100.00;102052.75;5105027;28;20085;-42
2023/12/18 08:35:04;;;;;;;56.75;31.75;;;;;;;3.16;100.00;102059.75;5095350;28;20127;-40
2023/12/18 08:37:32;;;;;;;52.60;31.02;;;;;;;2.97;100.00;102061.53;5112462;28;20051;-41
2023/12/18 08:40:02;;;;;;;60.20;31.13;;;;;;;3.06;100.00;102058.91;5114164;28;20047;-41
2023/12/18 08:42:30;;;;;;;53.58;30.42;;;;;;;2.90;100.00;102066.84;5112389;28;20040;-41
2023/12/18 08:44:58;;;;;;;54.78;30.85;;;;;;;3.12;100.00;102063.31;5112301;27;20123;-43
2023/12/18 08:47:27;;;;;;;55.22;31.55;;;;;;;2.97;100.00;102066.81;5112351;28;20094;-41
2023/12/18 08:49:56;;;;;;;52.38;31.58;;;;;;;3.06;100.00;102073.84;5112917;27;20082;-42
2023/12/18 08:52:24;;;;;;;54.47;30.73;;;;;;;3.06;100.00;102079.09;5113835;28;20092;-42
2023/12/18 08:54:52;;;;;;;57.13;31.52;;;;;;;3.04;100.00;102076.47;5113349;28;20074;-42
2023/12/18 08:57:22;;;;;;;57.35;31.02;;;;;;;2.88;100.00;102070.31;5113903;28;20535;-43
2023/12/18 08:59:51;;;;;;;51.85;30.20;;;;;;;2.99;100.00;102062.44;5113955;28;20196;-41
2023/12/18 09:02:22;;;;;;;52.58;30.60;;;;;;;3.17;100.00;102065.03;5113812;28;20143;-42
2023/12/18 09:04:51;;;;;;;54.70;30.60;;;;;;;3.27;100.00;102063.25;5114014;28;20485;-42
2023/12/18 09:07:19;;;;;;;54.15;30.80;;;;;;;3.43;100.00;102053.56;5113951;28;20135;-42
2023/12/18 09:09:47;;;;;;;55.67;30.27;;;;;;;3.66;100.00;102050.88;5113559;28;20047;-42
2023/12/18 09:12:16;;;;;;;56.03;32.45;;;;;;;3.81;100.00;102052.59;5113633;28;20550;-41
2023/12/18 09:14:46;;;;;;;54.97;30.98;;;;;;;3.93;100.00;102053.41;5113601;27;20592;-41
2023/12/18 09:17:14;;;;;;;55.95;32.42;;;;;;;3.95;100.00;102041.06;5113789;27;20488;-42
2023/12/18 09:19:42;;;;;;;57.15;31.77;;;;;;;3.92;100.00;102051.66;5113598;28;20108;-43
2023/12/18 09:22:10;;;;;;;58.10;31.85;;;;;;;3.90;100.00;102040.22;5113542;28;20047;-42
2023/12/18 09:24:39;;;;;;;52.35;30.98;;;;;;;3.91;100.00;102041.97;5113599;28;20055;-42
2023/12/18 09:27:07;;;;;;;53.30;31.92;;;;;;;3.79;100.00;102039.41;5113381;28;20424;-43
2023/12/18 09:29:36;;;;;;;53.33;31.98;;;;;;;3.88;100.00;102034.09;5113406;27;20047;-41
2023/12/18 09:32:07;;;;;;;58.17;33.17;;;;;;;4.01;100.00;102034.91;5113659;28;20040;-41
2023/12/18 09:34:36;;;;;;;61.28;34.03;;;;;;;4.20;100.00;102025.13;5113395;27;20051;-42
2023/12/18 09:37:04;;;;;;;61.50;32.88;;;;;;;4.35;100.00;102019.75;5113432;28;20393;-41
2023/12/18 09:39:32;;;;;;;59.67;32.50;;;;;;;4.47;100.00;102017.03;5113239;28;20047;-41
2023/12/18 09:42:02;;;;;;;60.20;33.03;;;;;;;4.50;100.00;102014.34;5112763;28;20096;-42
2023/12/18 09:44:31;;;;;;;58.63;32.72;;;;;;;4.66;100.00;102007.19;5113223;28;20055;-43
2023/12/18 09:47:00;;;;;;;55.97;31.88;;;;;;;4.67;100.00;102010.72;5113148;28;20044;-42
2023/12/18 09:49:30;;;;;;;51.33;30.90;;;;;;;4.58;100.00;102009.00;5113359;28;20488;-43
2023/12/18 09:52:01;;;;;;;53.50;30.67;;;;;;;4.74;100.00;101997.44;5112962;28;20462;-40
2023/12/18 09:54:31;;;;;;;52.33;30.30;;;;;;;4.80;100.00;101996.47;5112879;28;20126;-40
2023/12/18 09:57:02;;;;;;;51.40;29.85;;;;;;;4.79;100.00;101995.59;5113106;28;20142;-42
2023/12/18 09:59:30;;;;;;;52.97;30.50;;;;;;;4.91;100.00;101989.31;5113291;28;20104;-49
2023/12/18 10:02:00;;;;;;;51.83;30.95;;;;;;;5.01;100.00;101987.47;5113335;28;20071;-42
2023/12/18 10:04:29;;;;;;;51.33;30.95;;;;;;;4.82;100.00;101989.41;5113531;28;20052;-42
2023/12/18 10:06:58;;;;;;;51.20;30.55;;;;;;;4.89;100.00;101994.63;5112530;28;20048;-42
2023/12/18 10:09:27;;;;;;;68.82;32.03;;;;;;;5.09;100.00;101989.16;5113002;28;20412;-41
2023/12/18 10:11:56;;;;;;;64.78;29.27;;;;;;;5.21;100.00;101988.19;5112877;28;20047;-42
2023/12/18 10:14:24;;;;;;;52.70;27.67;;;;;;;5.23;100.00;101986.38;5112442;28;20127;-42
2023/12/18 10:16:52;;;;;;;64.45;29.55;;;;;;;5.28;100.00;101976.63;5112923;28;20050;-42
2023/12/18 10:19:24;;;;;;;51.05;27.88;;;;;;;5.39;100.00;101976.50;5112491;28;20051;-42
2023/12/18 10:21:54;;;;;;;56.75;28.27;;;;;;;5.40;100.00;101979.16;5112338;28;20464;-43
2023/12/18 10:24:22;;;;;;;47.33;27.63;;;;;;;5.49;100.00;101974.63;5112313;28;20449;-41
2023/12/18 10:26:54;;;;;;;63.10;29.38;;;;;;;5.54;100.00;101971.03;5112272;28;20062;-40
2023/12/18 10:29:22;;;;;;;57.47;30.10;;;;;;;5.59;100.00;101973.59;5112321;28;20563;-40
2023/12/18 10:31:51;;;;;;;59.97;28.88;;;;;;;5.73;100.00;101972.56;5111758;28;20054;-43
2023/12/18 10:34:22;;;;;;;49.00;28.13;;;;;;;5.79;100.00;101960.13;5111654;28;20122;-42
2023/12/18 10:36:52;;;;;;;49.30;28.35;;;;;;;5.84;100.00;101963.59;5112054;28;20050;-41
2023/12/18 10:39:22;;;;;;;49.00;28.73;;;;;;;5.44;100.00;101969.38;5111968;28;20086;-42
2023/12/18 10:41:56;;;;;;;48.55;26.48;;;;;;;5.60;100.00;101959.50;5112064;28;20047;-42
2023/12/18 10:44:26;;;;;;;;;;;;;;;5.74;100.00;101958.41;5112228;28;20087;-42
2023/12/18 10:46:55;;;;;;;44.03;25.33;;;;;;;5.69;100.00;101960.25;5111397;28;19936;-41
2023/12/18 10:49:27;;;;;;;44.47;26.50;;;;;;;5.85;100.00;101949.44;5111906;28;20047;-41
2023/12/18 10:51:57;;;;;;;50.08;29.08;;;;;;;5.89;100.00;101945.88;5111492;28;20063;-41
2023/12/18 10:54:27;;;;;;;47.42;28.52;;;;;;;6.01;100.00;101945.72;5111527;28;20071;-43
2023/12/18 10:56:57;;;;;;;49.63;28.55;;;;;;;5.80;100.00;101941.59;5111520;28;20430;-43
2023/12/18 10:59:29;;;;;;;51.38;29.70;;;;;;;5.94;100.00;101939.63;5111443;28;20094;-42
2023/12/18 11:01:57;;;;;;;51.55;31.15;;;;;;;6.04;100.00;101943.03;5111500;28;20396;-41
2023/12/18 11:04:26;;;;;;;56.03;29.73;;;;;;;6.10;100.00;101929.69;5111618;28;20136;-43
2023/12/18 11:06:55;;;;;;;50.72;30.08;;;;;;;6.23;100.00;101923.31;5111282;28;20047;-42
2023/12/18 11:09:23;;;;;;;58.15;31.52;;;;;;;6.27;100.00;101922.38;5111356;28;20053;-42
2023/12/18 11:11:54;;;;;;;54.03;30.38;;;;;;;6.34;100.00;101924.91;5111193;28;20079;-42
2023/12/18 11:14:34;;;;;;;56.25;31.05;;;;;;;6.42;100.00;101920.38;5111201;28;20055;-42
2023/12/18 11:17:13;;;;;;;50.60;30.35;;;;;;;6.50;100.00;101919.34;5111110;28;20108;-40